Flight Track Log - Related Links

Times and Time Zones

All times are in EDT time to prevent confusion due to time zone crossing. See the FLG3735 flight status page for this flight to view local times or setup timezone preferences in your user account.

Time Position Orientation Groundspeed Altitude Reporting Facility
EDT Latitude Longitude Course Direction KTS MPH feet Rate Location/Type
Sun 09:01:10 PM 42.1972 -83.3608 90° East 170 196 1,400  Level Cleveland Center
Sun 09:01:54 PM 42.1600 -83.3564 175° South 204 235 2,400 2,019 Climbing Cleveland Center
Sun 09:02:54 PM 42.0997 -83.3481 174° South 224 258 4,900 2,579 Climbing Cleveland Center
Sun 09:03:41 PM 42.0547 -83.3069 146° Southeast 304 350 7,000 2,355 Climbing Cleveland Center
Sun 09:04:00 PM 42.3188 -82.7288 82° East  Level FlightAware Approximate
Sun 09:04:41 PM 42.0756 -83.2156 73° East 240 276 9,100  Level Cleveland Center
Sun 09:05:00 PM 42.3366 -82.5702 71° East  Level FlightAware Approximate
Sun 09:05:41 PM 42.1261 -83.1028 59° Northeast 267 307 11,200  Level Cleveland Center
Sun 09:06:00 PM 42.3667 -82.4193 90° East  Level FlightAware Approximate
Sun 09:06:41 PM 42.1725 -82.9814 63° Northeast 316 364 12,200  Level Cleveland Center
Sun 09:07:41 PM 42.2211 -82.8458 64° Northeast 361 415 13,200 1,000 Climbing Cleveland Center
Sun 09:08:41 PM 42.2717 -82.7103 63° Northeast 388 447 14,200 1,000 Climbing Cleveland Center
Sun 09:09:41 PM 42.3242 -82.5686 63° Northeast 400 460 15,200 1,000 Climbing Cleveland Center
Sun 09:10:41 PM 42.3642 -82.4211 70° East 405 466 16,200 1,000 Climbing Cleveland Center
Sun 09:11:41 PM 42.3583 -82.2606 93° East 410 472 17,200 1,000 Climbing Cleveland Center
Sun 09:12:41 PM 42.3544 -82.0975 92° East 415 478 18,200 1,008 Climbing Cleveland Center
Sun 09:13:40 PM 42.3458 -81.9344 94° East 433 498 19,200 967 Climbing Cleveland Center
Sun 09:15:41 PM 42.3306 -81.6028 93° East 438 504 21,100 895 Climbing Cleveland Center
Sun 09:16:41 PM 42.3236 -81.4369 93° East 447 514 21,900 750 Climbing Cleveland Center
Sun 09:17:41 PM 42.3142 -81.2853 95° East 447 514 22,600 750 Climbing Cleveland Center
Sun 09:18:41 PM 42.3069 -81.1167 93° East 447 514 23,400 807 Climbing Cleveland Center
Sun 09:19:40 PM 42.2969 -80.9425 94° East 460 529 24,200 800 Climbing Cleveland Center
Sun 09:20:41 PM 42.2892 -80.7711 93° East 460 529 25,000 700 Climbing Cleveland Center
Sun 09:21:40 PM 42.2789 -80.6000 95° East 460 529 25,600 2,017 Climbing Cleveland Center
Sun 09:22:40 PM 42.2683 -80.4092 94° East 460 529 29,000 545 Climbing Cleveland Center
Sun 09:23:41 PM 42.2783 -80.2325 86° East 465 535 26,700 -893 Descending Cleveland Center
Sun 09:24:41 PM 42.2986 -80.0497 81° East 471 542 27,200 450 Climbing Cleveland Center
Sun 09:25:41 PM 42.3144 -79.8897 82° East 481 554 27,600 500 Climbing Cleveland Center
Sun 09:26:41 PM 42.3319 -79.7097 82° East 481 554 28,200 550 Climbing Cleveland Center
Sun 09:27:41 PM 42.3469 -79.5297 84° East 481 554 28,700 400 Climbing Cleveland Center
Sun 09:28:41 PM 42.3661 -79.3467 82° East 486 559 29,000 150 Climbing Cleveland Center
Sun 09:29:41 PM 42.3847 -79.1581 82° East 491 565 29,000  Level Cleveland Center
Sun 09:30:40 PM 42.4011 -78.9692 83° East 498 573 29,000  Level Cleveland Center
Sun 09:31:41 PM 42.4192 -78.7858 82° East 498 573 29,000  Level Cleveland Center
Sun 09:32:41 PM 42.4347 -78.5997 83° East 498 573 29,000  Level Cleveland Center
Sun 09:33:40 PM 42.4503 -78.4108 84° East 504 580 29,000  Level Cleveland Center
Sun 09:34:41 PM 42.4672 -78.2217 83° East 504 580 29,000  Level Cleveland Center
Sun 09:35:41 PM 42.4822 -78.0353 84° East 504 580 29,000  Level Cleveland Center
Sun 09:36:41 PM 42.4944 -77.8489 85° East 499 574 29,000  Level Cleveland Center
Sun 09:37:41 PM 42.5108 -77.6622 83° East 499 574 29,000  Level Cleveland Center
Sun 09:38:41 PM 42.5261 -77.4558 84° East 499 574 29,000  Level Cleveland Center
Sun 09:39:41 PM 42.5419 -77.2744 83° East 501 577 29,000  Level Cleveland Center
Sun 09:41:58 PM 42.5706 -76.8669 84° East 498 573 29,000  Level Boston Center
Sun 09:42:58 PM 42.5839 -76.6789 84° East 498 573 29,000  Level Boston Center
Sun 09:43:58 PM 42.5969 -76.4936 84° East 498 573 29,000  Level Boston Center
Sun 09:44:58 PM 42.6094 -76.3111 85° East 498 573 29,000  Level Boston Center
Sun 09:45:58 PM 42.6228 -76.1058 85° East 492 566 29,000  Level Boston Center
Sun 09:46:58 PM 42.6344 -75.9258 85° East 492 566 29,000  Level Boston Center
Sun 09:47:58 PM 42.6442 -75.7400 86° East 492 566 29,000 -250 Level Boston Center
Sun 09:48:58 PM 42.6556 -75.5600 85° East 492 566 28,500 -1,650 Descending Boston Center
Sun 09:49:58 PM 42.6669 -75.3742 85° East 492 566 25,700 -2,900 Descending Boston Center
Sun 09:50:58 PM 42.6775 -75.1936 85° East 487 560 22,700 -2,950 Descending Boston Center
Sun 09:51:58 PM 42.6858 -75.0217 86° East 469 540 19,800 -3,050 Descending Boston Center
Sun 09:52:58 PM 42.6978 -74.8500 85° East 463 533 16,600 -3,279 Descending Boston Center
Sun 09:53:24 PM 42.7014 -74.7767 86° East 438 504 15,100 -2,900 Descending Boston Center
Sun 09:53:58 PM 42.7050 -74.7061 86° East 437 503 13,700 -2,951 Descending Boston Center
Sun 09:54:25 PM 42.7089 -74.6158 87° East 422 486 12,100 -2,600 Descending Boston Center
Sun 09:54:58 PM 42.7147 -74.5311 85° East 421 484 11,100 -1,200 Descending Boston Center
Sun 09:55:25 PM 42.7242 -74.4722 78° East 377 434 10,900 -500 Descending Boston Center
Sun 09:56:10 PM 42.7417 -74.4192 66° East 375 432 10,500 -1,180 Descending Boston Center
Sun 09:56:26 PM 42.7614 -74.3547 67° East 315 362 9,700 -1,700 Descending Boston Center
Sun 09:57:10 PM 42.7772 -74.2928 71° East 329 379 8,800 -1,500 Descending Boston Center
Sun 09:58:22 PM 42.8231 -74.1500 66° East 296 341 6,800 -1,636 Descending Boston Center
Sun 09:59:22 PM 42.8558 -74.0517 66° East 283 326 5,200 -1,488 Descending Boston Center
Sun 10:00:23 PM 42.8739 -73.9500 76° East 270 311 3,800 -1,377 Descending Boston Center

Login

Don't have an account? Register now (free) for customized features, flight alerts, and more!